Time;durP1;ratioP1;P1;durP2;ratioP2;P2;SDS_P1;SDS_P2;PMS_P1;PMS_P2;Temp;Humidity;BMP_temperature;BMP_pressure;BME280_temperature;BME280_humidity;BME280_pressure;Samples;Min_cycle;Max_cycle;Signal;HPM_P1;HPM_P2
2024/01/01 00:02:02;;;;;;;19.88;8.23;;;9.20;99.90;;;9.23;100.00;99649.50;5215289;28;20049;-48
2024/01/01 00:04:34;;;;;;;17.48;6.35;;;9.30;99.90;;;9.27;100.00;99651.31;5214237;28;20065;-49
2024/01/01 00:07:06;;;;;;;15.55;5.72;;;9.30;99.90;;;9.30;100.00;99663.50;5220444;28;20045;-49
2024/01/01 00:09:40;;;;;;;14.43;5.40;;;9.30;99.90;;;9.29;100.00;99674.75;5220820;28;20132;-49
2024/01/01 00:12:13;;;;;;;15.30;5.88;;;9.30;99.90;;;9.25;100.00;99666.88;5218729;28;20041;-48
2024/01/01 00:14:45;;;;;;;15.10;5.20;;;9.30;99.90;;;9.25;100.00;99679.88;5240040;28;20076;-49
2024/01/01 00:17:18;;;;;;;13.27;5.38;;;9.30;99.90;;;9.20;100.00;99670.25;5222953;28;20107;-48
2024/01/01 00:19:51;;;;;;;13.45;5.43;;;9.20;99.90;;;9.17;100.00;99672.75;5220749;28;20698;-48
2024/01/01 00:22:23;;;;;;;15.55;5.30;;;9.20;99.90;;;9.16;100.00;99669.28;5219311;28;20432;-49
2024/01/01 00:24:57;;;;;;;14.07;5.00;;;9.20;99.90;;;9.17;100.00;99664.97;5215187;28;20060;-49
2024/01/01 00:27:31;;;;;;;17.50;4.95;;;9.20;99.90;;;9.16;100.00;99663.22;5220676;28;20049;-49
2024/01/01 00:30:05;;;;;;;9.30;3.90;;;9.20;99.90;;;9.21;100.00;99670.28;5219031;28;20052;-49
2024/01/01 00:32:37;;;;;;;10.95;4.22;;;9.20;99.90;;;9.17;100.00;99659.75;5221062;28;20053;-49
2024/01/01 00:35:10;;;;;;;11.70;4.07;;;9.20;99.90;;;9.22;100.00;99665.94;5221352;28;20041;-50
2024/01/01 00:37:42;;;;;;;10.38;4.00;;;9.20;99.90;;;9.21;100.00;99656.38;5217151;28;20057;-49
2024/01/01 00:40:17;;;;;;;7.90;3.40;;;9.20;99.90;;;9.26;100.00;99659.97;5209613;28;20060;-49
2024/01/01 00:42:49;;;;;;;8.80;3.03;;;9.30;99.90;;;9.25;100.00;99638.28;5207876;28;20672;-48
2024/01/01 00:45:21;;;;;;;6.55;2.28;;;9.30;99.90;;;9.28;100.00;99653.09;5225849;28;20041;-50
2024/01/01 00:47:54;;;;;;;5.13;2.28;;;9.30;99.90;;;9.26;100.00;99654.78;5208910;28;20057;-49
2024/01/01 00:50:27;;;;;;;6.40;2.20;;;9.30;99.90;;;9.17;100.00;99646.75;5212780;28;20050;-48
2024/01/01 00:53:00;;;;;;;9.48;2.55;;;9.20;99.90;;;9.14;100.00;99649.31;5240417;28;20037;-50
2024/01/01 00:55:34;;;;;;;5.03;1.95;;;9.20;99.90;;;9.12;100.00;99646.66;5240669;28;20619;-50
2024/01/01 00:58:07;;;;;;;4.03;2.08;;;9.20;99.90;;;9.13;100.00;99647.56;5232038;28;20172;-48
2024/01/01 01:00:40;;;;;;;9.60;1.90;;;9.20;99.90;;;9.13;100.00;99655.34;5239928;28;20048;-49
2024/01/01 01:03:13;;;;;;;4.72;1.80;;;9.20;99.90;;;9.08;100.00;99651.75;5233763;28;20507;-50
2024/01/01 01:05:45;;;;;;;3.53;1.67;;;9.10;99.90;;;9.02;100.00;99649.03;5236939;28;20044;-49
2024/01/01 01:08:17;;;;;;;3.53;1.50;;;9.10;99.90;;;8.99;100.00;99655.00;5249612;28;20053;-49
2024/01/01 01:10:51;;;;;;;2.95;1.35;;;9.10;99.90;;;8.95;100.00;99659.28;5231411;28;20102;-50
2024/01/01 01:13:24;;;;;;;5.45;2.63;;;9.00;99.90;;;8.91;100.00;99662.63;5252613;28;20410;-49
2024/01/01 01:15:56;;;;;;;6.82;1.67;;;9.00;99.90;;;8.89;100.00;99668.66;5237353;28;20577;-49
2024/01/01 01:18:28;;;;;;;2.40;1.75;;;9.00;99.90;;;8.90;100.00;99680.81;5234057;28;20117;-48
2024/01/01 01:21:01;;;;;;;6.13;1.67;;;8.90;99.90;;;8.90;100.00;99673.88;5235600;28;20049;-48
2024/01/01 01:23:33;;;;;;;3.25;0.95;;;8.90;99.90;;;8.92;100.00;99685.19;5239651;28;20059;-49
2024/01/01 01:26:07;;;;;;;5.10;0.80;;;8.90;99.90;;;8.96;100.00;99675.75;5239227;28;20041;-48
2024/01/01 01:28:40;;;;;;;3.42;0.88;;;9.00;99.90;;;8.98;100.00;99680.13;5242325;28;20509;-49
2024/01/01 01:31:12;;;;;;;1.38;0.88;;;9.00;99.90;;;9.05;100.00;99669.88;5241860;28;20614;-48
2024/01/01 01:33:44;;;;;;;6.28;1.02;;;9.10;99.90;;;9.13;100.00;99673.56;5247880;28;20069;-48
2024/01/01 01:36:17;;;;;;;5.85;1.00;;;9.10;99.90;;;9.13;100.00;99673.56;5241088;28;20151;-48
2024/01/01 01:38:49;;;;;;;1.83;0.90;;;9.10;99.90;;;9.17;100.00;99664.97;5231446;28;20060;-48
2024/01/01 01:41:23;;;;;;;3.13;0.98;;;9.10;99.90;;;9.24;100.00;99669.44;5234723;28;20102;-48
2024/01/01 01:43:55;;;;;;;2.78;1.05;;;9.20;99.90;;;9.32;100.00;99673.09;5245004;28;20660;-49
2024/01/01 01:46:28;;;;;;;3.40;0.95;;;9.30;99.90;;;9.30;100.00;99671.31;5237822;28;20075;-49
2024/01/01 01:49:01;;;;;;;1.55;1.05;;;9.30;99.90;;;9.37;100.00;99663.66;5242780;28;20411;-48
2024/01/01 01:51:34;;;;;;;2.10;0.95;;;9.30;99.90;;;9.41;100.00;99660.31;5240462;28;20591;-48
2024/01/01 01:54:06;;;;;;;3.28;0.95;;;9.30;99.90;;;9.38;100.00;99655.03;5243162;28;20044;-48
2024/01/01 01:56:40;;;;;;;2.53;0.98;;;9.40;99.90;;;9.38;100.00;99660.22;5243849;28;20388;-48
2024/01/01 01:59:13;;;;;;;2.22;0.70;;;9.40;99.90;;;9.40;100.00;99650.75;5248820;28;20136;-49
2024/01/01 02:01:46;;;;;;;6.55;0.82;;;9.40;99.90;;;9.40;100.00;99632.53;5242236;28;20094;-48
2024/01/01 02:04:18;;;;;;;3.92;0.70;;;9.40;99.90;;;9.40;100.00;99632.53;5254402;28;20032;-49
2024/01/01 02:06:51;;;;;;;1.75;0.57;;;9.40;99.90;;;9.48;100.00;99636.16;5245423;28;20171;-48
2024/01/01 02:09:23;;;;;;;5.20;1.17;;;9.40;99.90;;;9.47;100.00;99628.34;5249990;28;20049;-49
2024/01/01 02:11:57;;;;;;;2.35;0.50;;;9.40;99.90;;;9.46;100.00;99632.66;5231054;28;20101;-48
2024/01/01 02:14:30;;;;;;;7.10;0.85;;;9.40;99.90;;;9.48;100.00;99619.69;5251222;28;20045;-49
2024/01/01 02:17:02;;;;;;;4.05;0.98;;;9.40;99.90;;;9.44;100.00;99628.25;5241543;28;20326;-48
2024/01/01 02:19:35;;;;;;;4.38;0.63;;;9.40;99.90;;;9.42;100.00;99619.56;5241803;28;20055;-48
2024/01/01 02:22:08;;;;;;;5.72;0.73;;;9.40;99.90;;;9.46;100.00;99626.59;5238125;28;20136;-48
2024/01/01 02:24:41;;;;;;;3.95;0.98;;;9.40;99.90;;;9.47;100.00;99624.00;5243507;28;20056;-48
2024/01/01 02:27:14;;;;;;;4.88;0.98;;;9.40;99.90;;;9.49;100.00;99617.09;5238698;28;20625;-49
2024/01/01 02:29:46;;;;;;;1.52;1.08;;;9.50;99.90;;;9.60;100.00;99617.34;5232564;28;20407;-49
2024/01/01 02:32:19;;;;;;;2.60;0.32;;;9.50;99.90;;;9.65;100.00;99614.81;5239308;28;20048;-49
2024/01/01 02:34:52;;;;;;;4.55;0.70;;;9.60;99.90;;;9.68;100.00;99623.56;5231985;28;20049;-49
2024/01/01 02:37:24;;;;;;;2.65;1.02;;;9.60;99.90;;;9.65;100.00;99625.22;5240726;28;20503;-49
2024/01/01 02:39:58;;;;;;;5.35;0.70;;;9.60;99.90;;;9.67;100.00;99620.94;5240489;28;20048;-48
2024/01/01 02:42:30;;;;;;;5.28;0.60;;;9.60;99.90;;;9.68;100.00;99640.91;5245815;28;20059;-49
2024/01/01 02:45:04;;;;;;;3.08;0.88;;;9.60;99.90;;;9.63;100.00;99629.53;5228905;28;20072;-48
2024/01/01 02:47:37;;;;;;;8.30;0.95;;;9.60;99.90;;;9.60;100.00;99635.56;5243066;28;20056;-48
2024/01/01 02:50:10;;;;;;;0.90;0.30;;;9.60;99.90;;;9.61;100.00;99633.81;5229547;28;20068;-49
2024/01/01 02:52:43;;;;;;;2.15;0.60;;;9.60;99.90;;;9.60;100.00;99629.47;5227714;28;20049;-49
2024/01/01 02:55:16;;;;;;;1.08;0.40;;;9.60;99.90;;;9.65;100.00;99620.00;5234692;28;20538;-48
2024/01/01 02:57:49;;;;;;;1.55;0.85;;;9.60;99.90;;;9.66;100.00;99625.28;5231223;28;20059;-49
2024/01/01 03:00:21;;;;;;;3.65;0.90;;;9.60;99.90;;;9.75;100.00;99632.38;5239998;28;20083;-49
2024/01/01 03:02:54;;;;;;;3.67;0.60;;;9.70;99.90;;;9.69;100.00;99640.06;5237808;28;20503;-49
2024/01/01 03:05:27;;;;;;;3.05;0.60;;;9.70;99.90;;;9.70;100.00;99634.00;5240611;28;20055;-50
2024/01/01 03:07:59;;;;;;;3.92;0.70;;;9.70;99.90;;;9.72;100.00;99634.94;5242339;28;20052;-48
2024/01/01 03:10:33;;;;;;;4.30;0.82;;;9.70;99.90;;;9.68;100.00;99633.09;5242822;28;20198;-49
2024/01/01 03:13:06;;;;;;;6.28;0.93;;;9.70;99.90;;;9.67;100.00;99628.75;5235265;28;20415;-49
2024/01/01 03:15:38;;;;;;;7.13;0.63;;;9.70;99.90;;;9.67;100.00;99626.16;5227744;28;20072;-48
2024/01/01 03:18:12;;;;;;;5.15;0.55;;;9.70;99.90;;;9.63;100.00;99637.31;5229358;28;20091;-49
2024/01/01 03:20:44;;;;;;;1.42;0.77;;;9.60;99.90;;;9.68;100.00;99639.19;5243051;28;20049;-48
2024/01/01 03:23:17;;;;;;;3.05;0.60;;;9.60;99.90;;;9.55;100.00;99639.78;5235631;28;20053;-49
2024/01/01 03:25:51;;;;;;;2.67;0.40;;;9.60;99.90;;;9.50;100.00;99644.88;5236988;28;20052;-48
2024/01/01 03:28:23;;;;;;;4.05;1.10;;;9.50;99.90;;;9.60;100.00;99642.47;5239091;28;20088;-49
2024/01/01 03:30:56;;;;;;;3.92;0.60;;;9.60;99.90;;;9.59;100.00;99645.94;5243907;28;20095;-49
2024/01/01 03:33:29;;;;;;;5.18;0.75;;;9.60;99.90;;;9.54;100.00;99640.63;5242980;28;20052;-48
2024/01/01 03:36:01;;;;;;;4.82;0.45;;;9.50;99.90;;;9.55;100.00;99641.50;5236973;28;20052;-48
2024/01/01 03:38:34;;;;;;;2.58;0.70;;;9.50;99.90;;;9.51;100.00;99641.41;5244451;28;20040;-49
2024/01/01 03:41:08;;;;;;;5.43;0.52;;;9.50;99.90;;;9.57;100.00;99640.66;5227526;28;20045;-49
2024/01/01 03:43:40;;;;;;;4.15;0.88;;;9.50;99.90;;;9.56;100.00;99646.72;5242489;28;20045;-49
2024/01/01 03:46:13;;;;;;;3.03;0.75;;;9.60;99.90;;;9.52;100.00;99651.00;5230262;28;20056;-49
2024/01/01 03:48:45;;;;;;;5.00;0.80;;;9.50;99.90;;;9.54;100.00;99661.44;5242488;28;20143;-48
2024/01/01 03:51:18;;;;;;;2.63;0.85;;;9.50;99.90;;;9.55;100.00;99652.78;5227974;28;20045;-48
2024/01/01 03:53:50;;;;;;;4.00;0.70;;;9.50;99.90;;;9.58;100.00;99668.44;5236363;28;20051;-49
2024/01/01 03:56:25;;;;;;;5.78;0.70;;;9.50;99.90;;;9.57;100.00;99656.28;5227502;28;20103;-49
2024/01/01 03:58:57;;;;;;;10.32;0.70;;;9.60;99.90;;;9.66;100.00;99655.63;5240300;28;20056;-49
2024/01/01 04:01:31;;;;;;;3.30;0.82;;;9.60;99.90;;;9.63;100.00;99660.75;5241942;28;20055;-49
2024/01/01 04:04:05;;;;;;;1.30;0.57;;;9.60;99.90;;;9.64;100.00;99657.28;5228568;28;20526;-48
2024/01/01 04:06:38;;;;;;;2.58;0.80;;;9.60;99.90;;;9.62;100.00;99669.41;5256192;28;20048;-48
2024/01/01 04:09:10;;;;;;;3.03;0.70;;;9.60;99.90;;;9.61;100.00;99662.44;5241791;28;20056;-48
2024/01/01 04:11:44;;;;;;;3.35;1.10;;;9.60;99.90;;;9.63;100.00;99668.53;5242680;28;20059;-49
2024/01/01 04:14:16;;;;;;;5.50;1.10;;;9.60;99.90;;;9.63;100.00;99660.75;5226568;28;20049;-48
2024/01/01 04:16:49;;;;;;;6.13;1.20;;;9.60;99.90;;;9.68;100.00;99666.91;5247906;28;20049;-48
2024/01/01 04:19:21;;;;;;;2.15;0.55;;;9.60;99.90;;;9.68;100.00;99673.00;5240140;28;20064;-49
2024/01/01 04:21:54;;;;;;;3.90;0.85;;;9.60;99.90;;;9.62;100.00;99666.78;5235155;28;20511;-48
2024/01/01 04:24:26;;;;;;;1.50;0.70;;;9.60;99.90;;;9.60;100.00;99671.09;5226304;28;20045;-49
2024/01/01 04:27:00;;;;;;;2.90;0.80;;;9.60;99.90;;;9.58;100.00;99672.78;5234308;28;20530;-48
2024/01/01 04:29:32;;;;;;;7.35;1.00;;;9.60;99.90;;;9.58;100.00;99672.78;5226322;28;20105;-48
2024/01/01 04:32:05;;;;;;;2.22;0.52;;;9.50;99.90;;;9.56;100.00;99671.88;5228763;28;20053;-48
2024/01/01 04:34:38;;;;;;;2.53;0.60;;;9.50;99.90;;;9.58;100.00;99668.44;5239835;28;20036;-48
2024/01/01 04:37:10;;;;;;;4.18;0.50;;;9.50;99.90;;;9.59;100.00;99658.94;5240595;28;20051;-48
2024/01/01 04:39:43;;;;;;;3.58;0.77;;;9.60;99.90;;;9.61;100.00;99680.66;5242975;28;20125;-49
2024/01/01 04:42:17;;;;;;;4.90;0.95;;;9.60;99.90;;;9.60;100.00;99671.09;5226545;28;20052;-48
2024/01/01 04:44:49;;;;;;;5.80;0.47;;;9.60;99.90;;;9.63;100.00;99676.34;5267047;28;20076;-48
2024/01/01 04:47:22;;;;;;;6.22;0.68;;;9.60;99.90;;;9.59;100.00;99682.34;5240721;28;20041;-48
2024/01/01 04:49:54;;;;;;;4.18;0.57;;;9.60;99.90;;;9.57;100.00;99676.22;5241866;28;20048;-51
2024/01/01 04:52:27;;;;;;;4.75;0.63;;;9.50;99.90;;;9.56;100.00;99675.34;5233466;28;20053;-49
2024/01/01 04:54:59;;;;;;;1.98;0.38;;;9.50;99.90;;;9.57;100.00;99679.69;5227124;28;20037;-49
2024/01/01 04:57:33;;;;;;;1.85;0.28;;;9.60;99.90;;;9.54;100.00;99689.19;5238653;28;20054;-48
2024/01/01 05:00:07;;;;;;;3.28;0.50;;;9.50;99.90;;;9.57;100.00;99682.28;5241984;28;20052;-48
2024/01/01 05:02:40;;;;;;;6.85;1.42;;;9.50;99.90;;;9.59;100.00;99675.44;5239135;28;20455;-47
2024/01/01 05:05:12;;;;;;;5.65;0.68;;;9.60;99.90;;;9.61;100.00;99680.66;5237103;28;20051;-50
2024/01/01 05:07:45;;;;;;;3.13;0.88;;;9.60;99.90;;;9.65;100.00;99678.16;5264624;28;20336;-49
2024/01/01 05:10:17;;;;;;;3.92;0.75;;;9.60;99.90;;;9.60;100.00;99681.50;5240715;28;20052;-51
2024/01/01 05:12:51;;;;;;;3.50;0.65;;;9.60;99.90;;;9.70;100.00;99675.63;5229409;28;20033;-48
2024/01/01 05:15:23;;;;;;;6.43;0.68;;;9.70;99.90;;;9.59;100.00;99680.63;5230391;28;20051;-49
2024/01/01 05:17:56;;;;;;;7.40;1.02;;;9.60;99.90;;;9.54;100.00;99689.19;5230604;28;20053;-51
2024/01/01 05:20:28;;;;;;;3.15;0.60;;;9.60;99.90;;;9.55;100.00;99685.72;5243080;28;20079;-49
2024/01/01 05:23:01;;;;;;;5.40;0.95;;;9.50;99.90;;;9.54;100.00;99695.25;5245594;28;20044;-48
2024/01/01 05:25:33;;;;;;;1.95;0.60;;;9.50;99.90;;;9.51;100.00;99698.66;5244887;28;20048;-49
2024/01/01 05:28:08;;;;;;;8.48;1.00;;;9.50;99.90;;;9.52;100.00;99695.22;5229881;28;20630;-52
2024/01/01 05:30:40;;;;;;;3.83;0.85;;;9.50;99.90;;;9.56;100.00;99692.69;5244357;28;20041;-48
2024/01/01 05:33:13;;;;;;;4.88;0.77;;;9.60;99.90;;;9.57;100.00;99704.84;5241250;28;20044;-49
2024/01/01 05:35:45;;;;;;;4.43;0.80;;;9.60;99.90;;;9.60;100.00;99707.53;5245637;28;20106;-48
2024/01/01 05:38:19;;;;;;;6.95;1.00;;;9.60;99.90;;;9.59;100.00;99709.25;5228008;28;20045;-49
2024/01/01 05:40:51;;;;;;;4.57;0.70;;;9.60;99.90;;;9.58;100.00;99710.06;5234216;28;20067;-49
2024/01/01 05:43:25;;;;;;;5.88;1.20;;;9.60;99.90;;;9.54;100.00;99702.19;5226750;28;20574;-50
2024/01/01 05:45:57;;;;;;;2.70;0.45;;;9.50;99.90;;;9.58;100.00;99697.06;5245214;28;20050;-50
2024/01/01 05:48:30;;;;;;;2.33;0.95;;;9.50;99.90;;;9.59;100.00;99695.38;5243313;28;20591;-48
2024/01/01 05:51:02;;;;;;;2.03;0.88;;;9.50;99.90;;;9.55;100.00;99701.34;5238564;28;20049;-48
2024/01/01 05:53:34;;;;;;;6.53;0.60;;;9.60;99.90;;;9.55;100.00;99689.19;5243025;28;20045;-49
2024/01/01 05:56:08;;;;;;;3.38;0.70;;;9.50;99.90;;;9.55;100.00;99709.13;5245095;28;20135;-50
2024/01/01 05:58:41;;;;;;;1.95;0.68;;;9.50;99.90;;;9.57;100.00;99720.44;5244237;28;20043;-48
2024/01/01 06:01:14;;;;;;;1.83;0.60;;;9.50;99.90;;;9.55;100.00;99714.34;5236331;28;20122;-49
2024/01/01 06:03:46;;;;;;;1.23;0.70;;;9.50;99.90;;;9.59;100.00;99710.97;5245624;28;20047;-48
2024/01/01 06:06:19;;;;;;;4.25;0.60;;;9.60;99.90;;;9.56;100.00;99711.78;5244036;28;20696;-48
2024/01/01 06:08:51;;;;;;;4.07;0.63;;;9.50;99.90;;;9.55;100.00;99719.53;5231419;28;20044;-51
2024/01/01 06:11:23;;;;;;;3.75;0.68;;;9.50;99.90;;;9.56;100.00;99722.19;5233032;28;20056;-49
2024/01/01 06:13:59;;;;;;;1.60;0.52;;;9.50;99.90;;;9.53;100.00;99719.53;5238906;28;20074;-47
2024/01/01 06:16:32;;;;;;;6.10;0.98;;;9.50;99.90;;;9.57;100.00;99723.03;5241925;28;20052;-50
2024/01/01 06:19:04;;;;;;;3.75;0.82;;;9.50;99.90;;;9.59;100.00;99726.59;5237126;28;20507;-48
2024/01/01 06:21:36;;;;;;;7.72;0.82;;;9.50;99.90;;;9.54;100.00;99718.66;5240167;28;20056;-48
2024/01/01 06:24:09;;;;;;;4.53;0.85;;;9.50;99.90;;;9.51;100.00;99740.28;5235419;28;20052;-48
2024/01/01 06:26:41;;;;;;;5.18;0.77;;;9.50;99.90;;;9.51;100.00;99729.88;5242736;28;20041;-48
2024/01/01 06:29:15;;;;;;;5.57;0.75;;;9.50;99.90;;;9.48;100.00;99745.41;5226575;28;20048;-48
2024/01/01 06:31:47;;;;;;;3.78;1.17;;;9.50;99.90;;;9.46;100.00;99735.84;5236234;28;20091;-51
2024/01/01 06:34:20;;;;;;;3.13;0.75;;;9.50;99.90;;;9.45;100.00;99742.78;5243796;28;20045;-49
2024/01/01 06:36:52;;;;;;;4.55;0.85;;;9.50;99.90;;;9.45;100.00;99747.97;5239041;28;20131;-52
2024/01/01 06:39:24;;;;;;;3.20;0.80;;;9.50;99.90;;;9.44;100.00;99747.91;5242352;28;20040;-50
2024/01/01 06:41:57;;;;;;;4.80;1.17;;;9.50;99.90;;;9.49;100.00;99747.19;5230757;28;20056;-49
2024/01/01 06:44:31;;;;;;;5.78;1.15;;;9.50;99.90;;;9.48;100.00;99755.81;5241304;28;20131;-49
2024/01/01 06:47:04;;;;;;;5.47;1.23;;;9.50;99.90;;;9.47;100.00;99759.28;5229996;28;20041;-49
2024/01/01 06:49:37;;;;;;;5.18;0.70;;;9.50;99.90;;;9.46;100.00;99757.53;5242635;28;20049;-48
2024/01/01 06:52:09;;;;;;;4.03;0.65;;;9.50;99.90;;;9.54;100.00;99747.28;5236070;28;20083;-49
2024/01/01 06:54:41;;;;;;;1.05;0.70;;;9.50;99.90;;;9.50;100.00;99748.94;5226716;28;20041;-48
2024/01/01 06:57:14;;;;;;;10.70;1.13;;;9.50;99.90;;;9.57;100.00;99759.47;5235211;28;20045;-52
2024/01/01 06:59:47;;;;;;;4.30;0.85;;;9.50;99.90;;;9.55;100.00;99759.44;5243604;28;20052;-48
2024/01/01 07:02:20;;;;;;;3.97;0.93;;;9.50;99.90;;;9.47;100.00;99761.88;5243977;28;20043;-49
2024/01/01 07:04:52;;;;;;;6.32;0.82;;;9.50;99.90;;;9.47;100.00;99769.69;5245120;28;20041;-52
2024/01/01 07:07:25;;;;;;;3.33;0.80;;;9.50;99.90;;;9.44;100.00;99777.41;5241240;28;20040;-47
2024/01/01 07:09:56;;;;;;;6.43;1.08;;;9.50;99.90;;;9.44;100.00;99774.81;5236773;28;20053;-50
2024/01/01 07:12:30;;;;;;;3.22;0.70;;;9.50;99.90;;;9.44;100.00;99782.59;5241005;28;20044;-48
2024/01/01 07:15:04;;;;;;;7.40;1.02;;;9.50;99.90;;;9.46;100.00;99783.53;5223352;28;20036;-49
2024/01/01 07:17:37;;;;;;;6.22;0.80;;;9.50;99.90;;;9.43;100.00;99792.97;5224874;28;20052;-49
2024/01/01 07:20:12;;;;;;;4.30;0.77;;;9.40;99.90;;;9.42;100.00;99792.09;5243048;28;20044;-48
2024/01/01 07:22:44;;;;;;;5.68;1.10;;;9.40;99.90;;;9.40;100.00;99795.53;5226413;28;20098;-49
2024/01/01 07:25:16;;;;;;;7.38;0.80;;;9.40;99.90;;;9.40;100.00;99799.00;5243674;28;20047;-48
2024/01/01 07:27:49;;;;;;;3.80;0.85;;;9.40;99.90;;;9.44;100.00;99798.22;5247063;28;20049;-48
2024/01/01 07:30:23;;;;;;;6.85;0.73;;;9.40;99.90;;;9.45;100.00;99805.19;5239042;28;20047;-48
2024/01/01 07:32:55;;;;;;;1.95;0.88;;;9.40;99.90;;;9.44;100.00;99811.22;5230244;28;20427;-48
2024/01/01 07:35:27;;;;;;;8.82;0.75;;;9.40;99.90;;;9.41;100.00;99811.16;5223005;28;20135;-50
2024/01/01 07:38:01;;;;;;;10.35;1.00;;;9.40;99.90;;;9.42;100.00;99817.22;5236878;28;20091;-48
2024/01/01 07:40:33;;;;;;;4.05;0.77;;;9.40;99.90;;;9.42;100.00;99819.84;5239948;28;20094;-49
2024/01/01 07:43:06;;;;;;;5.35;0.77;;;9.40;99.90;;;9.38;100.00;99826.66;5238140;28;20040;-48
2024/01/01 07:45:40;;;;;;;6.70;0.52;;;9.40;99.90;;;9.38;100.00;99826.66;5242419;28;20067;-48
2024/01/01 07:48:12;;;;;;;2.92;0.88;;;9.40;99.90;;;9.39;100.00;99822.34;5242068;28;20040;-48
2024/01/01 07:50:44;;;;;;;1.83;0.45;;;9.40;99.90;;;9.41;100.00;99831.97;5226321;28;20529;-48
2024/01/01 07:53:17;;;;;;;5.22;0.50;;;9.40;99.90;;;9.38;100.00;99839.69;5242737;28;20048;-48
2024/01/01 07:55:49;;;;;;;10.23;0.98;;;9.40;99.90;;;9.36;100.00;99843.97;5234755;28;20141;-52
2024/01/01 07:58:23;;;;;;;0.43;0.43;;;9.40;99.90;;;9.35;100.00;99844.81;5240976;28;20041;-48
2024/01/01 08:00:57;;;;;;;1.95;0.70;;;9.30;99.90;;;9.37;100.00;99850.06;5242586;28;20125;-50
2024/01/01 08:03:29;;;;;;;0.75;0.57;;;9.30;99.90;;;9.35;100.00;99855.22;5239779;28;20198;-49
2024/01/01 08:06:01;;;;;;;2.33;0.70;;;9.40;99.90;;;9.33;100.00;99854.31;5228739;28;20041;-49
2024/01/01 08:08:34;;;;;;;4.75;0.52;;;9.30;99.90;;;9.31;100.00;99861.19;5237118;28;20587;-49
2024/01/01 08:11:07;;;;;;;3.10;0.63;;;9.30;99.90;;;9.32;100.00;99870.72;5237613;28;20040;-48
2024/01/01 08:13:40;;;;;;;3.97;0.38;;;9.30;99.90;;;9.28;100.00;99863.72;5241668;28;20147;-51
2024/01/01 08:16:14;;;;;;;1.75;0.40;;;9.30;99.90;;;9.23;100.00;99871.41;5242134;28;20825;-52
2024/01/01 08:18:47;;;;;;;;;;;9.30;99.90;;;9.23;100.00;99867.91;5234413;28;20043;-50
2024/01/01 08:21:19;;;;;;;1.98;0.60;;;9.20;99.90;;;9.21;100.00;99874.81;5234360;28;19921;-49
2024/01/01 08:23:53;;;;;;;7.05;0.85;;;9.20;99.90;;;9.17;100.00;99870.34;5229976;28;20049;-50
2024/01/01 08:26:25;;;;;;;6.00;0.93;;;9.20;99.90;;;9.17;100.00;99888.56;5238895;28;20072;-48
2024/01/01 08:28:58;;;;;;;3.30;0.73;;;9.20;99.90;;;9.11;100.00;99883.19;5240462;28;20059;-49
2024/01/01 08:31:31;;;;;;;4.35;0.70;;;9.10;99.90;;;9.12;100.00;99892.75;5247894;28;20051;-48
2024/01/01 08:34:04;;;;;;;1.52;0.55;;;9.20;99.90;;;9.12;100.00;99892.75;5235395;28;20049;-49
2024/01/01 08:36:36;;;;;;;1.98;0.50;;;9.10;99.90;;;9.10;100.00;99897.03;5241225;28;20053;-48
2024/01/01 08:39:09;;;;;;;4.25;0.52;;;9.10;99.90;;;9.11;100.00;99899.66;5238728;28;20044;-51
2024/01/01 08:41:44;;;;;;;1.33;0.47;;;9.10;99.90;;;9.08;100.00;99899.59;5248047;28;20040;-48
2024/01/01 08:44:16;;;;;;;1.13;0.32;;;9.10;99.90;;;9.05;100.00;99898.63;5235889;28;20075;-49
2024/01/01 08:46:50;;;;;;;1.75;0.38;;;9.10;99.90;;;9.01;100.00;99905.47;5247618;28;20056;-49
2024/01/01 08:49:23;;;;;;;1.50;0.30;;;9.00;99.90;;;9.01;100.00;99902.88;5239791;28;20137;-50
2024/01/01 08:51:55;;;;;;;1.52;0.60;;;9.00;99.90;;;9.03;100.00;99900.31;5237060;28;20041;-49
2024/01/01 08:54:27;;;;;;;1.42;0.65;;;9.00;99.90;;;9.01;100.00;99899.41;5222694;28;20063;-49
2024/01/01 08:57:00;;;;;;;0.95;0.90;;;9.00;99.90;;;9.03;100.00;99909.00;5241137;28;20438;-49
2024/01/01 08:59:32;;;;;;;1.45;0.57;;;9.00;99.90;;;9.04;100.00;99909.88;5237654;28;20382;-48
2024/01/01 09:02:06;;;;;;;0.57;0.40;;;9.10;99.90;;;9.11;100.00;99917.00;5236249;28;20054;-49
2024/01/01 09:04:39;;;;;;;1.80;0.73;;;9.10;99.90;;;9.09;100.00;99916.97;5239751;28;20052;-49
2024/01/01 09:07:12;;;;;;;0.95;0.40;;;9.10;99.90;;;9.05;100.00;99920.31;5233302;28;20128;-48
2024/01/01 09:09:44;;;;;;;0.40;0.40;;;9.00;99.90;;;9.04;100.00;99923.75;5226852;28;20047;-48
2024/01/01 09:12:17;;;;;;;1.48;0.30;;;9.10;99.90;;;9.02;100.00;99933.25;5226573;28;20043;-49
2024/01/01 09:14:49;;;;;;;0.40;0.25;;;9.10;99.90;;;9.02;100.00;99940.16;5239308;28;20032;-49
2024/01/01 09:17:23;;;;;;;0.93;0.38;;;9.10;99.90;;;9.02;100.00;99945.34;5247074;28;20053;-49
2024/01/01 09:19:55;;;;;;;4.57;0.52;;;9.00;99.90;;;9.01;100.00;99947.06;5245954;28;20051;-48
2024/01/01 09:22:28;;;;;;;0.20;0.20;;;9.00;99.90;;;9.07;100.00;99952.44;5223329;28;20152;-50
2024/01/01 09:25:00;;;;;;;0.93;0.22;;;9.00;99.90;;;9.12;100.00;99956.03;5243969;28;20057;-49
2024/01/01 09:27:32;;;;;;;0.40;0.32;;;9.10;99.90;;;9.11;100.00;99962.06;5227786;28;20055;-49
2024/01/01 09:30:07;;;;;;;1.35;0.47;;;9.10;99.90;;;9.10;100.00;99964.63;5241730;28;20045;-49
2024/01/01 09:32:41;;;;;;;1.95;0.73;;;9.10;99.90;;;9.13;100.00;99969.94;5259720;28;20416;-50
2024/01/01 09:35:13;;;;;;;0.57;0.20;;;9.10;99.90;;;9.20;100.00;99977.06;5223546;28;20531;-48
2024/01/01 09:37:52;;;;;;;0.10;0.10;;;9.10;99.90;;;9.26;100.00;99972.03;5262973;28;20044;-49
2024/01/01 09:40:25;;;;;;;0.28;0.22;;;9.20;99.90;;;9.24;100.00;99984.09;5246839;28;20123;-50
2024/01/01 09:42:57;;;;;;;1.40;0.35;;;9.20;99.90;;;9.22;100.00;99986.66;5246019;28;20052;-50
2024/01/01 09:45:31;;;;;;;0.28;0.28;;;9.20;99.90;;;9.22;100.00;99986.66;5255512;28;20056;-49
2024/01/01 09:48:07;;;;;;;0.38;0.20;;;9.20;99.90;;;9.20;100.00;100003.06;5236697;28;20095;-48
2024/01/01 09:50:40;;;;;;;0.25;0.20;;;9.20;99.90;;;9.17;100.00;100008.16;5229828;28;20053;-48
2024/01/01 09:53:13;;;;;;;0.20;0.20;;;9.20;99.90;;;9.15;100.00;100004.66;5239806;28;20051;-48
2024/01/01 09:55:52;;;;;;;0.57;0.22;;;9.20;99.90;;;9.16;100.00;100003.81;5248380;28;20067;-52
2024/01/01 09:58:24;;;;;;;0.28;0.20;;;9.20;99.90;;;9.13;100.00;100003.75;5235437;28;20094;-48
2024/01/01 10:01:10;;;;;;;1.75;0.20;;;9.10;99.90;;;9.10;100.00;100008.84;5236327;28;20048;-49
2024/01/01 10:03:44;;;;;;;0.68;0.28;;;9.10;99.90;;;9.07;100.00;100006.16;5240194;28;20452;-50
2024/01/01 10:06:16;;;;;;;0.70;0.30;;;9.10;99.90;;;9.07;100.00;100007.03;5239712;28;20060;-49
2024/01/01 10:08:48;;;;;;;0.30;0.30;;;9.10;99.90;;;9.09;100.00;100010.56;5238898;28;20530;-48
2024/01/01 10:11:21;;;;;;;0.20;0.20;;;9.10;99.90;;;9.10;100.00;100012.31;5228729;28;20045;-48
2024/01/01 10:13:54;;;;;;;0.30;0.30;;;9.10;99.90;;;9.14;100.00;100013.28;5240901;28;20045;-49
2024/01/01 10:16:27;;;;;;;0.25;0.22;;;9.10;99.90;;;9.34;100.00;100008.63;5246938;28;20040;-50
2024/01/01 10:19:03;;;;;;;1.25;0.65;;;9.30;99.90;;;9.38;100.00;100021.75;5238056;28;20045;-49
2024/01/01 10:21:38;;;;;;;2.38;0.13;;;9.30;99.90;;;9.38;100.00;100016.53;5235753;28;20515;-49
2024/01/01 10:24:16;;;;;;;0.32;0.32;;;9.30;99.90;;;9.35;100.00;100010.41;5235403;28;20049;-48
2024/01/01 10:26:49;;;;;;;0.10;0.10;;;9.30;99.90;;;9.36;100.00;100013.03;5243993;28;20151;-48
2024/01/01 10:29:22;;;;;;;1.17;0.50;;;9.30;99.90;;;9.38;100.00;100019.16;5235252;28;20548;-48
2024/01/01 10:31:55;;;;;;;0.52;0.52;;;9.30;99.90;;;9.42;100.00;100015.81;5236319;28;20391;-49
2024/01/01 10:34:32;;;;;;;0.57;0.57;;;9.40;99.90;;;9.40;100.00;100022.69;5236074;28;20501;-49
2024/01/01 10:37:05;;;;;;;0.20;0.20;;;9.40;99.90;;;9.41;100.00;100023.56;5237341;28;20526;-50
2024/01/01 10:39:39;;;;;;;1.35;0.20;;;9.30;99.90;;;9.42;100.00;100015.81;5240510;28;20063;-47
2024/01/01 10:42:12;;;;;;;0.70;0.70;;;9.40;99.90;;;9.42;100.00;100026.22;5243597;28;20395;-48
2024/01/01 10:44:45;;;;;;;0.98;0.20;;;9.40;99.90;;;9.39;100.00;100026.13;5255605;28;20055;-49
2024/01/01 10:47:21;;;;;;;0.60;0.25;;;9.30;99.90;;;9.41;100.00;100019.25;5242698;28;20140;-48
2024/01/01 10:50:11;;;;;;;0.75;0.30;;;9.40;99.90;;;9.43;100.00;100019.28;5244227;28;20053;-49